Ebensburg, PA (15931)

8:07 AM EST on January 30, 2015 (GMT -0500)
APRSWXNET Colver PA US | Change Station
CLOSE
Current Station
Personal Weather Station
Location: Colver, PA
Elevation: 1988 ft
Nearby Weather Stations
Active Advisory: Wind Chill Advisory

Elev 1988 ft 40.54 °N, 78.79 °W | Updated 55 minutes ago

Overcast
Overcast
24 °F
Feels Like 16 °F
N
7
Wind Variable Wind from SSW
Gusts 16.0 mph

Today
High -- | Low -- °F
--% Chance of Precip.
Yesterday
High -- | Low -- °F
Precip. -- in
7:26 AM 5:30 PM
Waxing Gibbous, 82% visible
Pressure 30.01 in
Visibility 0.5 miles
Clouds Overcast 800 ft
Windchill 16 °F
Dew Point 24 °F
Humidity 99%
Rainfall 0.02 in
Snow Depth Not available.
UV 0 out of 12
Pollen .10 out of 12
Air Quality Not available.
Flu Activity Not available.
METAR KJST 301254Z AUTO 29018G27KT 1/2SM SN FZFG OVC008 M05/M07 A2993 RMK AO2 PK WND 30030/1155 CIG 006V011 SLP163 P0000 T10501072

More Conditions Fewer Conditions

Pressure 30.01 in
Visibility 0.5 miles
Clouds Overcast 800 ft
Windchill 16 °F
Dew Point 24 °F
Humidity 99%
Rainfall 0.02 in
Snow Depth Not available.
UV 0 out of 12
Pollen .10 out of 12
Air Quality Not available.
Flu Activity Not available.
METAR KJST 301254Z AUTO 29018G27KT 1/2SM SN FZFG OVC008 M05/M07 A2993 RMK AO2 PK WND 30030/1155 CIG 006V011 SLP163 P0000 T10501072

More Conditions Fewer Conditions

Nowcast | as of 7:17 am EST on January 30, 2015

Post frontal snow bands have formed across central Pennsylvania in the gusty northwesterly flow this morning. In these bands the snow may be heavy at times with reduced visibilities. The snow bands will weaken as they move eastward. Snow accumulations around a half an inch in the heaviest bands is possible.

×

10-Day Weather Forecast

Almanac

Astronomy

Jan. 30, 2015 Rise Set
Actual Time
Civil Twilight
Nautical Twilight
Astronomical Twilight
Moon
Length of Visible Light
Length of Day
Tomorrow will be .
, % of the Moon is Illuminated

Today's Extremes

State Highs State Lows

Community

WunderPhotos

Upload Photos

1,791,747 photos uploaded!

WunderBlogs® & News

Nearby

Air Quality

  Air Quality AQ Index Pollutant
Not available.

Snow Depth

Station Depth Elevation

Earthquake Activity

City Distance Mag. Time & Date
Minimum magnitude displayed is 2.5.

Coastal Water Temperatures

Place Temperature

Nearby Weather Stations